6°C
Woerden, The Nederlands
Taal:  Nederlands
Updated14/11/2018 06:20 
 
Station Historical Data
 
Daily Summary for November 14, 2018 Units:  Metric    English   Both
Next Day »
Daily Weekly Monthly Yearly Custom
  Current: High: Low: Average:
Temperature: 6.4 °C 8.6 °C 6.4 °C 7.8 °C
Dew Point: 4.8 °C 6.8 °C 4.8 °C 6.1 °C
Humidity: 89% 89% 88% 89%
Wind Speed: 5.6km/h 16.7km/h 5.6km/h 10km/h
Wind Gust: 5.8km/h 10.8km/h - -
WindSouth - - South
Pressure: 1025.8 hPa 1026.8 hPa 1025.4 hPa -
Precipitation: 0.3 mm      
Historical Graphs
 
 
Tabular Data for November 14, 2018
Time Temperature Dew Point Pressure Wind Wind Speed Wind Gust Humidity Rainfall Rate (Hourly) solar Conditions
00:04 8.3 °C 6.6 °C 1026.5 hPa South 5.6 km/h 5.3 km/h 89% 0.0 mm 0.00 W/m2 RA
00:09 8.3 °C 6.6 °C 1026.5 hPa South 9.7 km/h 8.2 km/h 89% 0.0 mm 0.00 W/m2 RA
00:14 8.2 °C 6.5 °C 1026.5 hPa South 9.3 km/h 4.5 km/h 89% 0.0 mm 0.00 W/m2 BKN
00:19 8.3 °C 6.6 °C 1026.5 hPa South 9.3 km/h 4.7 km/h 89% 0.0 mm 0.00 W/m2 BKN
00:24 8.3 °C 6.6 °C 1026.5 hPa SSW 7.4 km/h 4.7 km/h 89% 0.0 mm 0.00 W/m2 BKN
00:29 8.3 °C 6.6 °C 1026.5 hPa SSW 11.1 km/h 6.1 km/h 89% 0.0 mm 0.00 W/m2 BKN
00:34 8.3 °C 6.6 °C 1026.5 hPa SSW 9.3 km/h 4.0 km/h 89% 0.0 mm 0.00 W/m2 BKN
00:39 8.3 °C 6.6 °C 1026.6 hPa South 9.3 km/h 4.7 km/h 89% 0.0 mm 0.00 W/m2 BKN
00:44 8.2 °C 6.5 °C 1026.7 hPa South 8.0 km/h 4.8 km/h 89% 0.0 mm 0.00 W/m2 BKN
00:49 8.1 °C 6.4 °C 1026.7 hPa South 9.3 km/h 4.3 km/h 89% 0.0 mm 0.00 W/m2 BKN
00:54 8.1 °C 6.3 °C 1026.7 hPa SSE 8.0 km/h 5.0 km/h 89% 0.0 mm 0.00 W/m2 BKN
00:59 8.1 °C 6.3 °C 1026.7 hPa SSE 8.0 km/h 5.0 km/h 89% 0.0 mm 0.00 W/m2 BKN
01:04 8.1 °C 6.4 °C 1026.7 hPa South 9.3 km/h 6.3 km/h 89% 0.0 mm 0.00 W/m2 BKN
01:09 8.1 °C 6.3 °C 1026.7 hPa South 11.1 km/h 6.6 km/h 89% 0.0 mm 0.00 W/m2 BKN
01:14 8.1 °C 6.3 °C 1026.6 hPa South 9.3 km/h 6.3 km/h 89% 0.0 mm 0.00 W/m2 BKN
01:19 8.1 °C 6.4 °C 1026.6 hPa SSE 9.7 km/h 6.1 km/h 89% 0.0 mm 0.00 W/m2 BKN
01:24 8.2 °C 6.4 °C 1026.7 hPa South 9.3 km/h 7.4 km/h 89% 0.0 mm 0.00 W/m2 BKN
01:29 8.1 °C 6.4 °C 1026.8 hPa South 9.3 km/h 7.7 km/h 89% 0.0 mm 0.00 W/m2 BKN
01:34 8.2 °C 6.4 °C 1026.8 hPa South 9.3 km/h 6.0 km/h 89% 0.0 mm 0.00 W/m2 BKN
01:39 8.2 °C 6.4 °C 1026.7 hPa SSW 9.3 km/h 5.1 km/h 89% 0.0 mm 0.00 W/m2 BKN
01:44 8.3 °C 6.6 °C 1026.7 hPa SSW 9.3 km/h 4.7 km/h 89% 0.0 mm 0.00 W/m2 BKN
01:49 8.3 °C 6.6 °C 1026.8 hPa South 9.3 km/h 5.5 km/h 89% 0.0 mm 0.00 W/m2 BKN
01:54 8.4 °C 6.7 °C 1026.6 hPa SSW 7.4 km/h 6.3 km/h 89% 0.0 mm 0.00 W/m2 BKN
01:59 8.4 °C 6.7 °C 1026.7 hPa South 9.3 km/h 6.0 km/h 89% 0.3 mm 0.00 W/m2 RA
02:04 8.4 °C 6.7 °C 1026.7 hPa South 11.1 km/h 7.4 km/h 89% 0.3 mm 0.00 W/m2 RA
02:09 8.3 °C 6.6 °C 1026.7 hPa SSW 8.0 km/h 6.1 km/h 89% 0.3 mm 0.00 W/m2 BKN
02:14 8.3 °C 6.6 °C 1026.7 hPa South 6.4 km/h 6.3 km/h 89% 0.3 mm 0.00 W/m2 BKN
02:19 8.3 °C 6.6 °C 1026.8 hPa South 9.3 km/h 7.9 km/h 89% 0.3 mm 0.00 W/m2 BKN
02:24 8.3 °C 6.6 °C 1026.8 hPa South 11.3 km/h 6.1 km/h 89% 0.3 mm 0.00 W/m2 BKN
02:29 8.4 °C 6.7 °C 1026.8 hPa South 9.3 km/h 5.1 km/h 89% 0.3 mm 0.00 W/m2 BKN
02:34 8.4 °C 6.7 °C 1026.8 hPa South 9.7 km/h 6.0 km/h 89% 0.3 mm 0.00 W/m2 BKN
02:39 8.4 °C 6.7 °C 1026.7 hPa South 6.4 km/h 5.0 km/h 89% 0.3 mm 0.00 W/m2 BKN
02:44 8.4 °C 6.7 °C 1026.7 hPa South 7.4 km/h 5.5 km/h 89% 0.3 mm 0.00 W/m2 BKN
02:49 8.4 °C 6.7 °C 1026.6 hPa South 7.4 km/h 4.0 km/h 89% 0.3 mm 0.00 W/m2 BKN
02:54 8.4 °C 6.7 °C 1026.6 hPa South 7.4 km/h 5.0 km/h 89% 0.3 mm 0.00 W/m2 BKN
02:59 8.6 °C 6.8 °C 1026.4 hPa South 7.4 km/h 5.8 km/h 89% 0.0 mm 0.00 W/m2 BKN
03:04 8.6 °C 6.7 °C 1026.5 hPa South 7.4 km/h 4.7 km/h 88% 0.0 mm 0.00 W/m2 BKN
03:09 8.6 °C 6.7 °C 1026.4 hPa South 9.3 km/h 7.7 km/h 88% 0.0 mm 0.00 W/m2 BKN
03:14 8.6 °C 6.7 °C 1026.3 hPa SSE 9.7 km/h 7.9 km/h 88% 0.0 mm 0.00 W/m2 BKN
03:19 8.4 °C 6.6 °C 1026.4 hPa South 9.3 km/h 6.4 km/h 88% 0.0 mm 0.00 W/m2 BKN
03:24 8.4 °C 6.5 °C 1026.4 hPa South 5.6 km/h 5.6 km/h 88% 0.0 mm 0.00 W/m2 BKN
03:29 8.3 °C 6.4 °C 1026.3 hPa South 11.3 km/h 9.2 km/h 88% 0.0 mm 0.00 W/m2 BKN
03:34 8.2 °C 6.3 °C 1026.3 hPa South 13.0 km/h 8.7 km/h 88% 0.0 mm 0.00 W/m2 BKN
03:39 8.2 °C 6.3 °C 1026.3 hPa SSE 11.1 km/h 8.4 km/h 88% 0.0 mm 0.00 W/m2 BKN
03:44 8.1 °C 6.2 °C 1026.2 hPa SSE 9.3 km/h 7.7 km/h 88% 0.0 mm 0.00 W/m2 BKN
03:49 8.0 °C 6.1 °C 1026.1 hPa SSE 13.0 km/h 9.2 km/h 88% 0.0 mm 0.00 W/m2 BKN
03:54 7.9 °C 6.0 °C 1026.1 hPa SSE 16.7 km/h 10.3 km/h 88% 0.0 mm 0.00 W/m2 BKN
03:59 7.8 °C 5.9 °C 1026.0 hPa South 11.1 km/h 9.3 km/h 88% 0.0 mm 0.00 W/m2 BKN
04:04 7.7 °C 5.8 °C 1025.9 hPa SSE 9.7 km/h 8.0 km/h 88% 0.0 mm 0.00 W/m2 BKN
04:09 7.6 °C 5.9 °C 1025.9 hPa South 11.1 km/h 8.5 km/h 89% 0.0 mm 0.00 W/m2 BKN
04:14 7.6 °C 5.7 °C 1025.8 hPa South 9.3 km/h 6.9 km/h 88% 0.0 mm 0.00 W/m2 BKN
04:19 7.4 °C 5.7 °C 1025.8 hPa South 14.8 km/h 9.0 km/h 89% 0.0 mm 0.00 W/m2 BKN
04:24 7.4 °C 5.7 °C 1025.7 hPa South 9.3 km/h 7.9 km/h 89% 0.0 mm 0.00 W/m2 BKN
04:29 7.3 °C 5.6 °C 1025.7 hPa South 9.3 km/h 6.6 km/h 89% 0.0 mm 0.00 W/m2 BKN
04:34 7.2 °C 5.6 °C 1025.5 hPa SSE 9.3 km/h 8.0 km/h 89% 0.0 mm 0.00 W/m2 BKN
04:39 7.2 °C 5.5 °C 1025.5 hPa SSE 9.3 km/h 7.2 km/h 89% 0.0 mm 0.00 W/m2 BKN
04:44 7.1 °C 5.4 °C 1025.5 hPa SSE 9.7 km/h 7.7 km/h 89% 0.0 mm 0.00 W/m2 BKN
04:49 7.1 °C 5.4 °C 1025.5 hPa SSE 9.3 km/h 8.0 km/h 89% 0.0 mm 0.00 W/m2 BKN
04:54 7.1 °C 5.4 °C 1025.5 hPa SSE 13.0 km/h 9.7 km/h 89% 0.0 mm 0.00 W/m2 BKN
04:59 7.1 °C 5.4 °C 1025.5 hPa South 13.0 km/h 9.5 km/h 89% 0.0 mm 0.00 W/m2 BKN
05:04 7.1 °C 5.4 °C 1025.4 hPa South 11.3 km/h 9.8 km/h 89% 0.0 mm 0.00 W/m2 BKN
05:09 7.1 °C 5.4 °C 1025.5 hPa South 13.0 km/h 10.8 km/h 89% 0.0 mm 0.00 W/m2 BKN
05:14 7.1 °C 5.4 °C 1025.4 hPa South 14.8 km/h 9.8 km/h 89% 0.0 mm 0.00 W/m2 BKN
05:19 7.1 °C 5.4 °C 1025.5 hPa SSE 14.8 km/h 10.1 km/h 89% 0.0 mm 0.00 W/m2 BKN
05:24 7.1 °C 5.4 °C 1025.6 hPa SSE 14.8 km/h 10.5 km/h 89% 0.0 mm 0.00 W/m2 BKN
05:29 7.1 °C 5.4 °C 1025.6 hPa SSE 13.0 km/h 7.7 km/h 89% 0.0 mm 0.00 W/m2 BKN
05:34 7.1 °C 5.4 °C 1025.7 hPa SSE 14.8 km/h 9.3 km/h 89% 0.0 mm 0.00 W/m2 BKN
05:39 7.0 °C 5.3 °C 1025.7 hPa South 11.1 km/h 7.2 km/h 89% 0.0 mm 0.00 W/m2 BKN
05:44 6.9 °C 5.3 °C 1025.8 hPa South 9.3 km/h 7.6 km/h 89% 0.0 mm 0.00 W/m2 BKN
05:49 6.8 °C 5.2 °C 1025.8 hPa South 9.3 km/h 6.4 km/h 89% 0.0 mm 0.00 W/m2 BKN
05:54 6.8 °C 5.1 °C 1025.7 hPa SSE 13.0 km/h 8.2 km/h 89% 0.0 mm 0.00 W/m2 BKN
05:59 6.7 °C 5.0 °C 1025.8 hPa SSE 9.3 km/h 7.4 km/h 89% 0.0 mm 0.00 W/m2 BKN
06:04 6.6 °C 4.9 °C 1025.9 hPa South 13.0 km/h 8.2 km/h 89% 0.0 mm 0.00 W/m2 BKN
06:09 6.6 °C 4.9 °C 1025.9 hPa South 9.3 km/h 6.3 km/h 89% 0.0 mm 0.00 W/m2 BKN
06:14 6.4 °C 4.8 °C 1025.8 hPa SSE 9.3 km/h 6.9 km/h 89% 0.0 mm 0.00 W/m2 BKN
06:19 6.4 °C 4.8 °C 1025.8 hPa South 5.6 km/h 5.8 km/h 89% 0.0 mm 0.00 W/m2 BKN
Juneau County Weather